sensor_id;sensor_type;location;lat;lon;timestamp;P1;durP1;ratioP1;P2;durP2;ratioP2
2462;SDS011;1243;54.298;10.172;2023-04-01T00:00:16;11.43;;;7.83;;
2462;SDS011;1243;54.298;10.172;2023-04-01T00:02:43;11.00;;;8.77;;
2462;SDS011;1243;54.298;10.172;2023-04-01T00:05:09;11.27;;;8.77;;
2462;SDS011;1243;54.298;10.172;2023-04-01T00:07:36;12.97;;;8.90;;
2462;SDS011;1243;54.298;10.172;2023-04-01T00:10:03;9.00;;;7.43;;
2462;SDS011;1243;54.298;10.172;2023-04-01T00:12:33;9.27;;;7.10;;
2462;SDS011;1243;54.298;10.172;2023-04-01T00:14:59;12.37;;;6.83;;
2462;SDS011;1243;54.298;10.172;2023-04-01T00:17:25;8.80;;;6.90;;
2462;SDS011;1243;54.298;10.172;2023-04-01T00:19:51;9.40;;;7.53;;
2462;SDS011;1243;54.298;10.172;2023-04-01T00:22:17;12.13;;;7.73;;
2462;SDS011;1243;54.298;10.172;2023-04-01T00:24:42;7.73;;;6.60;;
2462;SDS011;1243;54.298;10.172;2023-04-01T00:27:08;8.60;;;6.60;;
2462;SDS011;1243;54.298;10.172;2023-04-01T00:29:34;8.50;;;6.30;;
2462;SDS011;1243;54.298;10.172;2023-04-01T00:32:00;9.73;;;6.80;;
2462;SDS011;1243;54.298;10.172;2023-04-01T00:34:26;6.50;;;5.43;;
2462;SDS011;1243;54.298;10.172;2023-04-01T00:36:52;6.07;;;5.37;;
2462;SDS011;1243;54.298;10.172;2023-04-01T00:39:21;12.40;;;5.90;;
2462;SDS011;1243;54.298;10.172;2023-04-01T00:41:47;5.70;;;5.10;;
2462;SDS011;1243;54.298;10.172;2023-04-01T00:44:22;5.40;;;4.90;;
2462;SDS011;1243;54.298;10.172;2023-04-01T00:46:50;5.13;;;4.63;;
2462;SDS011;1243;54.298;10.172;2023-04-01T00:49:17;4.67;;;4.27;;
2462;SDS011;1243;54.298;10.172;2023-04-01T00:51:45;5.10;;;4.70;;
2462;SDS011;1243;54.298;10.172;2023-04-01T00:54:15;5.90;;;4.70;;
2462;SDS011;1243;54.298;10.172;2023-04-01T00:56:46;6.57;;;4.30;;
2462;SDS011;1243;54.298;10.172;2023-04-01T00:59:18;5.83;;;4.00;;
2462;SDS011;1243;54.298;10.172;2023-04-01T01:01:47;6.33;;;5.17;;
2462;SDS011;1243;54.298;10.172;2023-04-01T01:12:26;5.73;;;5.33;;
2462;SDS011;1243;54.298;10.172;2023-04-01T01:15:30;6.23;;;5.63;;
2462;SDS011;1243;54.298;10.172;2023-04-01T01:32:30;6.17;;;5.00;;
2462;SDS011;1243;54.298;10.172;2023-04-01T01:35:22;5.23;;;4.73;;
2462;SDS011;1243;54.298;10.172;2023-04-01T01:40:48;5.33;;;4.90;;
2462;SDS011;1243;54.298;10.172;2023-04-01T01:43:19;7.40;;;5.40;;
2462;SDS011;1243;54.298;10.172;2023-04-01T01:45:50;5.53;;;5.03;;
2462;SDS011;1243;54.298;10.172;2023-04-01T01:48:20;13.80;;;6.03;;
2462;SDS011;1243;54.298;10.172;2023-04-01T01:50:48;4.60;;;4.20;;
2462;SDS011;1243;54.298;10.172;2023-04-01T01:53:14;8.70;;;4.33;;
2462;SDS011;1243;54.298;10.172;2023-04-01T01:55:41;5.30;;;4.80;;
2462;SDS011;1243;54.298;10.172;2023-04-01T02:00:38;6.23;;;4.73;;
2462;SDS011;1243;54.298;10.172;2023-04-01T02:03:05;3.77;;;3.57;;
2462;SDS011;1243;54.298;10.172;2023-04-01T02:05:32;3.90;;;3.70;;
2462;SDS011;1243;54.298;10.172;2023-04-01T02:08:02;4.37;;;4.00;;
2462;SDS011;1243;54.298;10.172;2023-04-01T02:10:35;4.00;;;3.70;;
2462;SDS011;1243;54.298;10.172;2023-04-01T02:13:06;5.03;;;3.37;;
2462;SDS011;1243;54.298;10.172;2023-04-01T02:15:51;4.43;;;3.00;;
2462;SDS011;1243;54.298;10.172;2023-04-01T02:18:21;4.33;;;2.90;;
2462;SDS011;1243;54.298;10.172;2023-04-01T02:20:47;3.50;;;3.30;;
2462;SDS011;1243;54.298;10.172;2023-04-01T02:23:15;4.43;;;3.20;;
2462;SDS011;1243;54.298;10.172;2023-04-01T02:25:41;2.93;;;2.73;;
2462;SDS011;1243;54.298;10.172;2023-04-01T02:28:08;3.30;;;2.50;;
2462;SDS011;1243;54.298;10.172;2023-04-01T02:30:36;3.00;;;2.80;;
2462;SDS011;1243;54.298;10.172;2023-04-01T02:33:05;3.50;;;3.20;;
2462;SDS011;1243;54.298;10.172;2023-04-01T02:35:32;3.10;;;2.90;;
2462;SDS011;1243;54.298;10.172;2023-04-01T02:38:00;2.77;;;2.60;;
2462;SDS011;1243;54.298;10.172;2023-04-01T02:40:26;3.57;;;2.30;;
2462;SDS011;1243;54.298;10.172;2023-04-01T02:42:52;2.23;;;2.13;;
2462;SDS011;1243;54.298;10.172;2023-04-01T02:45:17;2.37;;;2.27;;
2462;SDS011;1243;54.298;10.172;2023-04-01T02:47:43;2.63;;;2.50;;
2462;SDS011;1243;54.298;10.172;2023-04-01T02:50:09;2.47;;;2.37;;
2462;SDS011;1243;54.298;10.172;2023-04-01T02:52:35;2.50;;;2.30;;
2462;SDS011;1243;54.298;10.172;2023-04-01T02:55:02;2.27;;;2.17;;
2462;SDS011;1243;54.298;10.172;2023-04-01T02:57:29;2.07;;;1.97;;
2462;SDS011;1243;54.298;10.172;2023-04-01T02:59:55;2.73;;;1.90;;
2462;SDS011;1243;54.298;10.172;2023-04-01T03:02:21;3.20;;;2.03;;
2462;SDS011;1243;54.298;10.172;2023-04-01T03:04:46;1.77;;;1.67;;
2462;SDS011;1243;54.298;10.172;2023-04-01T03:07:12;3.00;;;1.90;;
2462;SDS011;1243;54.298;10.172;2023-04-01T03:09:38;2.00;;;1.90;;
2462;SDS011;1243;54.298;10.172;2023-04-01T03:12:05;2.67;;;1.60;;
2462;SDS011;1243;54.298;10.172;2023-04-01T03:14:31;1.93;;;1.73;;
2462;SDS011;1243;54.298;10.172;2023-04-01T03:16:56;1.97;;;1.87;;
2462;SDS011;1243;54.298;10.172;2023-04-01T03:19:22;2.40;;;2.10;;
2462;SDS011;1243;54.298;10.172;2023-04-01T03:21:48;2.00;;;1.90;;
2462;SDS011;1243;54.298;10.172;2023-04-01T03:24:14;1.90;;;1.70;;
2462;SDS011;1243;54.298;10.172;2023-04-01T03:26:39;2.43;;;2.23;;
2462;SDS011;1243;54.298;10.172;2023-04-01T03:29:05;3.20;;;2.00;;
2462;SDS011;1243;54.298;10.172;2023-04-01T03:31:31;2.80;;;2.60;;
2462;SDS011;1243;54.298;10.172;2023-04-01T03:33:56;1.87;;;1.77;;
2462;SDS011;1243;54.298;10.172;2023-04-01T03:36:22;2.23;;;2.13;;
2462;SDS011;1243;54.298;10.172;2023-04-01T03:38:48;1.90;;;1.80;;
2462;SDS011;1243;54.298;10.172;2023-04-01T03:41:15;4.37;;;2.60;;
2462;SDS011;1243;54.298;10.172;2023-04-01T03:43:42;2.60;;;1.77;;
2462;SDS011;1243;54.298;10.172;2023-04-01T03:46:08;2.07;;;1.97;;
2462;SDS011;1243;54.298;10.172;2023-04-01T03:48:34;2.00;;;1.90;;
2462;SDS011;1243;54.298;10.172;2023-04-01T03:51:00;2.00;;;1.90;;
2462;SDS011;1243;54.298;10.172;2023-04-01T03:53:25;3.10;;;2.10;;
2462;SDS011;1243;54.298;10.172;2023-04-01T03:55:52;2.43;;;2.33;;
2462;SDS011;1243;54.298;10.172;2023-04-01T03:58:18;5.83;;;2.47;;
2462;SDS011;1243;54.298;10.172;2023-04-01T04:00:44;2.27;;;2.17;;
2462;SDS011;1243;54.298;10.172;2023-04-01T04:03:10;1.60;;;1.50;;
2462;SDS011;1243;54.298;10.172;2023-04-01T04:05:36;1.83;;;1.73;;
2462;SDS011;1243;54.298;10.172;2023-04-01T04:08:02;2.40;;;2.30;;
2462;SDS011;1243;54.298;10.172;2023-04-01T04:10:28;2.43;;;2.33;;
2462;SDS011;1243;54.298;10.172;2023-04-01T04:12:54;2.33;;;2.23;;
2462;SDS011;1243;54.298;10.172;2023-04-01T04:15:20;2.43;;;2.33;;
2462;SDS011;1243;54.298;10.172;2023-04-01T04:17:46;2.60;;;2.40;;
2462;SDS011;1243;54.298;10.172;2023-04-01T04:20:13;2.30;;;2.20;;
2462;SDS011;1243;54.298;10.172;2023-04-01T04:22:39;3.30;;;3.00;;
2462;SDS011;1243;54.298;10.172;2023-04-01T04:25:05;3.00;;;2.80;;
2462;SDS011;1243;54.298;10.172;2023-04-01T04:27:31;2.80;;;2.70;;
2462;SDS011;1243;54.298;10.172;2023-04-01T04:29:56;3.53;;;2.70;;
2462;SDS011;1243;54.298;10.172;2023-04-01T04:32:22;3.47;;;3.10;;
2462;SDS011;1243;54.298;10.172;2023-04-01T04:34:48;3.00;;;2.83;;
2462;SDS011;1243;54.298;10.172;2023-04-01T04:37:14;2.90;;;2.70;;
2462;SDS011;1243;54.298;10.172;2023-04-01T04:39:39;3.53;;;3.33;;
2462;SDS011;1243;54.298;10.172;2023-04-01T04:42:05;3.40;;;3.20;;
2462;SDS011;1243;54.298;10.172;2023-04-01T04:44:31;2.10;;;2.00;;
2462;SDS011;1243;54.298;10.172;2023-04-01T04:46:56;3.20;;;2.90;;
2462;SDS011;1243;54.298;10.172;2023-04-01T04:49:22;2.70;;;2.40;;
2462;SDS011;1243;54.298;10.172;2023-04-01T04:51:48;3.43;;;3.23;;
2462;SDS011;1243;54.298;10.172;2023-04-01T04:54:13;2.93;;;2.73;;
2462;SDS011;1243;54.298;10.172;2023-04-01T04:56:39;5.13;;;3.30;;
2462;SDS011;1243;54.298;10.172;2023-04-01T04:59:05;3.90;;;3.03;;
2462;SDS011;1243;54.298;10.172;2023-04-01T05:01:32;2.80;;;2.60;;
2462;SDS011;1243;54.298;10.172;2023-04-01T05:03:58;3.30;;;2.83;;
2462;SDS011;1243;54.298;10.172;2023-04-01T05:06:24;3.10;;;2.90;;
2462;SDS011;1243;54.298;10.172;2023-04-01T05:08:50;2.10;;;2.00;;
2462;SDS011;1243;54.298;10.172;2023-04-01T05:11:17;2.70;;;2.60;;
2462;SDS011;1243;54.298;10.172;2023-04-01T05:13:44;3.20;;;2.53;;
2462;SDS011;1243;54.298;10.172;2023-04-01T05:16:15;3.03;;;2.83;;
2462;SDS011;1243;54.298;10.172;2023-04-01T05:18:42;3.03;;;2.73;;
2462;SDS011;1243;54.298;10.172;2023-04-01T05:21:09;2.93;;;2.67;;
2462;SDS011;1243;54.298;10.172;2023-04-01T05:23:36;3.00;;;2.20;;
2462;SDS011;1243;54.298;10.172;2023-04-01T05:26:03;3.00;;;2.80;;
2462;SDS011;1243;54.298;10.172;2023-04-01T05:28:33;3.17;;;3.00;;
2462;SDS011;1243;54.298;10.172;2023-04-01T05:30:59;3.40;;;3.10;;
2462;SDS011;1243;54.298;10.172;2023-04-01T05:33:25;3.10;;;2.90;;
2462;SDS011;1243;54.298;10.172;2023-04-01T05:35:52;2.67;;;2.57;;
2462;SDS011;1243;54.298;10.172;2023-04-01T05:38:18;3.60;;;3.30;;
2462;SDS011;1243;54.298;10.172;2023-04-01T05:40:44;3.40;;;3.20;;
2462;SDS011;1243;54.298;10.172;2023-04-01T05:43:10;2.17;;;2.07;;
2462;SDS011;1243;54.298;10.172;2023-04-01T05:45:36;3.90;;;2.47;;
2462;SDS011;1243;54.298;10.172;2023-04-01T05:48:02;3.33;;;2.60;;
2462;SDS011;1243;54.298;10.172;2023-04-01T05:50:28;2.77;;;2.57;;
2462;SDS011;1243;54.298;10.172;2023-04-01T05:52:53;3.77;;;2.90;;
2462;SDS011;1243;54.298;10.172;2023-04-01T05:55:19;3.50;;;3.30;;
2462;SDS011;1243;54.298;10.172;2023-04-01T05:57:45;3.50;;;3.30;;
2462;SDS011;1243;54.298;10.172;2023-04-01T06:00:13;2.70;;;2.50;;
2462;SDS011;1243;54.298;10.172;2023-04-01T06:02:40;2.70;;;2.50;;
2462;SDS011;1243;54.298;10.172;2023-04-01T06:07:55;5.77;;;3.30;;
2462;SDS011;1243;54.298;10.172;2023-04-01T06:10:28;2.90;;;2.70;;
2462;SDS011;1243;54.298;10.172;2023-04-01T06:13:05;1.80;;;1.70;;
2462;SDS011;1243;54.298;10.172;2023-04-01T06:15:43;2.90;;;2.60;;
2462;SDS011;1243;54.298;10.172;2023-04-01T06:32:00;3.20;;;2.13;;
2462;SDS011;1243;54.298;10.172;2023-04-01T06:48:21;3.80;;;2.67;;
2462;SDS011;1243;54.298;10.172;2023-04-01T06:56:24;3.67;;;2.43;;
2462;SDS011;1243;54.298;10.172;2023-04-01T07:01:34;2.70;;;2.50;;
2462;SDS011;1243;54.298;10.172;2023-04-01T07:06:37;3.43;;;3.23;;
2462;SDS011;1243;54.298;10.172;2023-04-01T07:09:11;2.67;;;2.50;;
2462;SDS011;1243;54.298;10.172;2023-04-01T07:11:41;2.90;;;2.70;;
2462;SDS011;1243;54.298;10.172;2023-04-01T07:16:49;3.00;;;2.80;;
2462;SDS011;1243;54.298;10.172;2023-04-01T07:19:26;3.00;;;2.80;;
2462;SDS011;1243;54.298;10.172;2023-04-01T07:22:04;4.13;;;2.30;;
2462;SDS011;1243;54.298;10.172;2023-04-01T07:24:39;3.10;;;2.80;;
2462;SDS011;1243;54.298;10.172;2023-04-01T07:27:12;5.43;;;2.77;;
2462;SDS011;1243;54.298;10.172;2023-04-01T07:29:38;3.27;;;3.07;;
2462;SDS011;1243;54.298;10.172;2023-04-01T07:37:32;3.93;;;3.63;;
2462;SDS011;1243;54.298;10.172;2023-04-01T07:45:24;2.70;;;2.50;;
2462;SDS011;1243;54.298;10.172;2023-04-01T07:50:45;3.33;;;2.73;;
2462;SDS011;1243;54.298;10.172;2023-04-01T07:53:35;3.37;;;2.80;;
2462;SDS011;1243;54.298;10.172;2023-04-01T07:56:06;2.97;;;2.73;;
2462;SDS011;1243;54.298;10.172;2023-04-01T08:06:47;5.20;;;2.70;;
2462;SDS011;1243;54.298;10.172;2023-04-01T08:14:58;3.10;;;2.13;;
2462;SDS011;1243;54.298;10.172;2023-04-01T08:17:34;3.27;;;3.07;;
2462;SDS011;1243;54.298;10.172;2023-04-01T08:23:13;9.40;;;2.97;;
2462;SDS011;1243;54.298;10.172;2023-04-01T08:28:33;3.57;;;3.33;;
2462;SDS011;1243;54.298;10.172;2023-04-01T08:33:58;3.60;;;3.40;;
2462;SDS011;1243;54.298;10.172;2023-04-01T08:36:36;4.40;;;3.50;;
2462;SDS011;1243;54.298;10.172;2023-04-01T08:39:28;3.63;;;3.37;;
2462;SDS011;1243;54.298;10.172;2023-04-01T08:42:08;4.20;;;3.40;;
2462;SDS011;1243;54.298;10.172;2023-04-01T08:50:18;7.70;;;2.90;;
2462;SDS011;1243;54.298;10.172;2023-04-01T08:58:35;5.57;;;3.20;;
2462;SDS011;1243;54.298;10.172;2023-04-01T09:12:55;9.60;;;4.80;;
2462;SDS011;1243;54.298;10.172;2023-04-01T09:15:54;6.80;;;5.20;;
2462;SDS011;1243;54.298;10.172;2023-04-01T09:18:46;4.80;;;3.87;;
2462;SDS011;1243;54.298;10.172;2023-04-01T09:27:27;10.10;;;7.60;;
2462;SDS011;1243;54.298;10.172;2023-04-01T09:33:09;7.10;;;5.07;;
2462;SDS011;1243;54.298;10.172;2023-04-01T09:41:32;9.00;;;6.40;;
2462;SDS011;1243;54.298;10.172;2023-04-01T09:44:50;5.33;;;4.93;;
2462;SDS011;1243;54.298;10.172;2023-04-01T10:00:52;5.80;;;5.30;;
2462;SDS011;1243;54.298;10.172;2023-04-01T10:06:51;10.73;;;7.00;;
2462;SDS011;1243;54.298;10.172;2023-04-01T10:12:54;9.80;;;6.23;;
2462;SDS011;1243;54.298;10.172;2023-04-01T10:18:03;5.13;;;4.60;;
2462;SDS011;1243;54.298;10.172;2023-04-01T10:23:59;9.13;;;6.63;;
2462;SDS011;1243;54.298;10.172;2023-04-01T10:34:56;19.07;;;6.33;;
2462;SDS011;1243;54.298;10.172;2023-04-01T10:37:42;7.77;;;6.10;;
2462;SDS011;1243;54.298;10.172;2023-04-01T10:43:19;6.53;;;5.93;;
2462;SDS011;1243;54.298;10.172;2023-04-01T10:51:33;6.20;;;5.10;;
2462;SDS011;1243;54.298;10.172;2023-04-01T11:17:21;11.40;;;7.50;;
2462;SDS011;1243;54.298;10.172;2023-04-01T11:26:15;5.80;;;5.37;;
2462;SDS011;1243;54.298;10.172;2023-04-01T11:28:55;12.57;;;7.87;;
2462;SDS011;1243;54.298;10.172;2023-04-01T11:31:44;12.90;;;6.00;;
2462;SDS011;1243;54.298;10.172;2023-04-01T11:39:37;6.63;;;5.60;;
2462;SDS011;1243;54.298;10.172;2023-04-01T11:44:53;9.77;;;6.50;;
2462;SDS011;1243;54.298;10.172;2023-04-01T11:47:25;8.33;;;6.10;;
2462;SDS011;1243;54.298;10.172;2023-04-01T11:50:29;5.27;;;4.80;;
2462;SDS011;1243;54.298;10.172;2023-04-01T11:53:20;8.03;;;6.33;;
2462;SDS011;1243;54.298;10.172;2023-04-01T11:55:56;6.80;;;6.10;;
2462;SDS011;1243;54.298;10.172;2023-04-01T12:20:50;8.20;;;4.70;;
2462;SDS011;1243;54.298;10.172;2023-04-01T12:39:29;14.07;;;5.80;;
2462;SDS011;1243;54.298;10.172;2023-04-01T12:44:42;11.27;;;5.80;;
2462;SDS011;1243;54.298;10.172;2023-04-01T12:55:40;6.20;;;5.80;;
2462;SDS011;1243;54.298;10.172;2023-04-01T12:58:20;10.83;;;4.23;;
2462;SDS011;1243;54.298;10.172;2023-04-01T13:10:56;6.20;;;4.87;;
2462;SDS011;1243;54.298;10.172;2023-04-01T13:16:24;7.83;;;5.17;;
2462;SDS011;1243;54.298;10.172;2023-04-01T13:21:54;5.97;;;4.13;;
2462;SDS011;1243;54.298;10.172;2023-04-01T13:33:14;12.10;;;5.17;;
2462;SDS011;1243;54.298;10.172;2023-04-01T13:36:07;8.63;;;4.27;;
2462;SDS011;1243;54.298;10.172;2023-04-01T13:39:02;5.80;;;4.90;;
2462;SDS011;1243;54.298;10.172;2023-04-01T13:41:51;8.93;;;6.03;;
2462;SDS011;1243;54.298;10.172;2023-04-01T13:50:01;10.93;;;4.93;;
2462;SDS011;1243;54.298;10.172;2023-04-01T14:01:09;4.70;;;4.23;;
2462;SDS011;1243;54.298;10.172;2023-04-01T14:06:34;3.30;;;3.00;;
2462;SDS011;1243;54.298;10.172;2023-04-01T14:09:34;4.40;;;4.00;;
2462;SDS011;1243;54.298;10.172;2023-04-01T14:12:09;11.70;;;4.70;;
2462;SDS011;1243;54.298;10.172;2023-04-01T14:22:46;8.90;;;4.33;;
2462;SDS011;1243;54.298;10.172;2023-04-01T14:25:41;9.03;;;3.97;;
2462;SDS011;1243;54.298;10.172;2023-04-01T14:47:38;6.80;;;3.50;;
2462;SDS011;1243;54.298;10.172;2023-04-01T14:50:20;4.30;;;3.90;;
2462;SDS011;1243;54.298;10.172;2023-04-01T14:52:59;10.73;;;3.40;;
2462;SDS011;1243;54.298;10.172;2023-04-01T15:00:41;6.90;;;3.60;;
2462;SDS011;1243;54.298;10.172;2023-04-01T15:03:22;4.90;;;3.20;;
2462;SDS011;1243;54.298;10.172;2023-04-01T15:09:24;8.20;;;3.17;;
2462;SDS011;1243;54.298;10.172;2023-04-01T15:17:58;2.70;;;2.60;;
2462;SDS011;1243;54.298;10.172;2023-04-01T15:26:42;3.83;;;2.53;;
2462;SDS011;1243;54.298;10.172;2023-04-01T15:29:23;3.63;;;2.60;;
2462;SDS011;1243;54.298;10.172;2023-04-01T15:35:24;6.73;;;5.10;;
2462;SDS011;1243;54.298;10.172;2023-04-01T15:37:57;4.30;;;3.57;;
2462;SDS011;1243;54.298;10.172;2023-04-01T15:40:31;4.70;;;2.77;;
2462;SDS011;1243;54.298;10.172;2023-04-01T15:43:49;4.73;;;3.43;;
2462;SDS011;1243;54.298;10.172;2023-04-01T15:48:59;6.87;;;3.40;;
2462;SDS011;1243;54.298;10.172;2023-04-01T15:54:11;6.97;;;3.30;;
2462;SDS011;1243;54.298;10.172;2023-04-01T15:57:02;2.23;;;2.00;;
2462;SDS011;1243;54.298;10.172;2023-04-01T16:02:21;4.77;;;3.40;;
2462;SDS011;1243;54.298;10.172;2023-04-01T16:10:17;9.10;;;4.03;;
2462;SDS011;1243;54.298;10.172;2023-04-01T16:12:53;4.90;;;3.10;;
2462;SDS011;1243;54.298;10.172;2023-04-01T16:15:32;4.63;;;2.77;;
2462;SDS011;1243;54.298;10.172;2023-04-01T16:18:22;2.30;;;1.97;;
2462;SDS011;1243;54.298;10.172;2023-04-01T16:21:10;1.83;;;1.73;;
2462;SDS011;1243;54.298;10.172;2023-04-01T16:34:04;4.70;;;2.73;;
2462;SDS011;1243;54.298;10.172;2023-04-01T16:36:47;7.07;;;4.03;;
2462;SDS011;1243;54.298;10.172;2023-04-01T16:47:23;2.77;;;2.50;;
2462;SDS011;1243;54.298;10.172;2023-04-01T16:50:30;4.20;;;2.67;;
2462;SDS011;1243;54.298;10.172;2023-04-01T16:56:11;8.07;;;7.37;;
2462;SDS011;1243;54.298;10.172;2023-04-01T17:03:49;3.63;;;3.33;;
2462;SDS011;1243;54.298;10.172;2023-04-01T17:11:38;4.23;;;3.10;;
2462;SDS011;1243;54.298;10.172;2023-04-01T17:19:17;7.50;;;3.37;;
2462;SDS011;1243;54.298;10.172;2023-04-01T17:22:32;6.60;;;3.60;;
2462;SDS011;1243;54.298;10.172;2023-04-01T17:32:57;7.97;;;5.57;;
2462;SDS011;1243;54.298;10.172;2023-04-01T17:41:48;11.43;;;4.17;;
2462;SDS011;1243;54.298;10.172;2023-04-01T17:58:33;8.70;;;4.40;;
2462;SDS011;1243;54.298;10.172;2023-04-01T18:04:17;5.37;;;3.43;;
2462;SDS011;1243;54.298;10.172;2023-04-01T18:07:15;3.47;;;3.27;;
2462;SDS011;1243;54.298;10.172;2023-04-01T18:15:27;6.17;;;3.63;;
2462;SDS011;1243;54.298;10.172;2023-04-01T18:18:17;4.27;;;3.87;;
2462;SDS011;1243;54.298;10.172;2023-04-01T18:26:10;4.20;;;3.77;;
2462;SDS011;1243;54.298;10.172;2023-04-01T18:29:03;3.87;;;3.47;;
2462;SDS011;1243;54.298;10.172;2023-04-01T18:31:51;7.03;;;3.40;;
2462;SDS011;1243;54.298;10.172;2023-04-01T18:37:47;7.03;;;3.63;;
2462;SDS011;1243;54.298;10.172;2023-04-01T18:46:07;3.60;;;3.30;;
2462;SDS011;1243;54.298;10.172;2023-04-01T18:48:50;10.70;;;4.20;;
2462;SDS011;1243;54.298;10.172;2023-04-01T18:51:21;6.70;;;3.53;;
2462;SDS011;1243;54.298;10.172;2023-04-01T18:53:57;7.97;;;3.10;;
2462;SDS011;1243;54.298;10.172;2023-04-01T18:56:25;4.60;;;4.20;;
2462;SDS011;1243;54.298;10.172;2023-04-01T19:04:38;3.27;;;2.90;;
2462;SDS011;1243;54.298;10.172;2023-04-01T19:07:27;4.67;;;2.83;;
2462;SDS011;1243;54.298;10.172;2023-04-01T19:10:21;6.20;;;3.43;;
2462;SDS011;1243;54.298;10.172;2023-04-01T19:18:25;9.13;;;4.97;;
2462;SDS011;1243;54.298;10.172;2023-04-01T19:59:41;7.47;;;3.53;;
2462;SDS011;1243;54.298;10.172;2023-04-01T20:02:56;4.37;;;3.57;;
2462;SDS011;1243;54.298;10.172;2023-04-01T20:14:07;3.90;;;3.27;;
2462;SDS011;1243;54.298;10.172;2023-04-01T20:16:53;3.37;;;3.07;;
2462;SDS011;1243;54.298;10.172;2023-04-01T20:19:32;4.37;;;2.60;;
2462;SDS011;1243;54.298;10.172;2023-04-01T20:27:37;17.57;;;3.43;;
2462;SDS011;1243;54.298;10.172;2023-04-01T20:30:24;4.00;;;2.90;;
2462;SDS011;1243;54.298;10.172;2023-04-01T20:33:18;4.30;;;2.40;;
2462;SDS011;1243;54.298;10.172;2023-04-01T20:38:57;4.20;;;2.83;;
2462;SDS011;1243;54.298;10.172;2023-04-01T20:50:56;7.00;;;4.47;;
2462;SDS011;1243;54.298;10.172;2023-04-01T20:53:29;4.40;;;4.00;;
2462;SDS011;1243;54.298;10.172;2023-04-01T20:56:22;4.07;;;3.60;;
2462;SDS011;1243;54.298;10.172;2023-04-01T21:07:33;4.50;;;2.73;;
2462;SDS011;1243;54.298;10.172;2023-04-01T21:18:50;3.10;;;2.90;;
2462;SDS011;1243;54.298;10.172;2023-04-01T21:29:25;4.23;;;2.30;;
2462;SDS011;1243;54.298;10.172;2023-04-01T21:32:17;2.90;;;2.37;;
2462;SDS011;1243;54.298;10.172;2023-04-01T21:35:43;5.33;;;2.90;;
2462;SDS011;1243;54.298;10.172;2023-04-01T22:07:48;3.20;;;2.63;;
2462;SDS011;1243;54.298;10.172;2023-04-01T22:19:12;2.60;;;2.07;;
2462;SDS011;1243;54.298;10.172;2023-04-01T22:21:59;3.53;;;2.60;;
2462;SDS011;1243;54.298;10.172;2023-04-01T22:24:45;4.07;;;3.07;;
2462;SDS011;1243;54.298;10.172;2023-04-01T22:38:53;4.20;;;2.60;;
2462;SDS011;1243;54.298;10.172;2023-04-01T22:44:03;7.03;;;2.47;;
2462;SDS011;1243;54.298;10.172;2023-04-01T22:46:47;3.67;;;2.27;;
2462;SDS011;1243;54.298;10.172;2023-04-01T22:49:36;2.17;;;2.07;;
2462;SDS011;1243;54.298;10.172;2023-04-01T22:52:13;2.93;;;2.00;;
2462;SDS011;1243;54.298;10.172;2023-04-01T23:00:04;4.57;;;3.03;;
2462;SDS011;1243;54.298;10.172;2023-04-01T23:03:32;5.17;;;3.00;;
2462;SDS011;1243;54.298;10.172;2023-04-01T23:06:00;3.50;;;2.00;;
2462;SDS011;1243;54.298;10.172;2023-04-01T23:11:09;2.13;;;2.00;;
2462;SDS011;1243;54.298;10.172;2023-04-01T23:13:50;3.10;;;2.07;;
2462;SDS011;1243;54.298;10.172;2023-04-01T23:16:43;2.50;;;2.10;;
2462;SDS011;1243;54.298;10.172;2023-04-01T23:24:52;2.50;;;1.90;;
2462;SDS011;1243;54.298;10.172;2023-04-01T23:27:28;1.70;;;1.60;;
2462;SDS011;1243;54.298;10.172;2023-04-01T23:30:02;2.30;;;2.13;;
2462;SDS011;1243;54.298;10.172;2023-04-01T23:32:28;7.35;;;2.70;;
2462;SDS011;1243;54.298;10.172;2023-04-01T23:34:55;2.00;;;1.90;;
2462;SDS011;1243;54.298;10.172;2023-04-01T23:37:23;2.43;;;2.13;;
2462;SDS011;1243;54.298;10.172;2023-04-01T23:39:50;1.97;;;1.87;;
2462;SDS011;1243;54.298;10.172;2023-04-01T23:44:55;2.35;;;2.15;;
2462;SDS011;1243;54.298;10.172;2023-04-01T23:47:30;3.93;;;1.87;;
2462;SDS011;1243;54.298;10.172;2023-04-01T23:52:44;2.90;;;2.70;;
2462;SDS011;1243;54.298;10.172;2023-04-01T23:55:23;3.80;;;2.20;;
